Lexington Weather

Lexington, Massachusetts, USA

45°F
5/12/2021 3:37am 
  • Lexington Conditions: Clear
  • Temperature: 45.0°F / 7.2°CColder 1.0°F than last hour.
  • Dew Point: 32.7°FIncreased 1.4°Fsince last hour.
  • Relative Humidity: 62%Increased 6.0% since last hour.
  • Wind: Wind from WNW WNW 5 mph, 10-min avg: 1 mph, gust: 5 mph
  • Barometer: 29.92 in Steady
  • Visibility: 10 miles
  • Rain Today: 0.00 in
  •   

Nearby Reports - Official Weather Stations - Current Conditions

Data from the National Weather Service

KBED - Bedford, MA


Distance from station: WNW 4mi, 6km

Updated Wed May 12, 2021 2:51am EDT

Clear

Clear

Wind from W

Wind:

W 3 mph, 6 km/h

Temperature: 45°F (7°C)

Dew Point: 28°F (-2°C)

Humidity: 53%

Barometer: 29.96 in (1014.6 hPa)

Clouds: Clear

Visibility: 10 miles (16 km)


2021/05/12 06:51 KBED 120651Z AUTO 27003KT 10SM CLR 07/M02 A2996 RMK AO2 SLP158 T00721022

KBOS - Boston, MA


Distance from station: ESE 12mi, 20km

Updated Wed May 12, 2021 2:54am EDT

Clear

Clear

Wind from W

Wind:

W 18 mph, 30 km/h,
Gust: 26 mph, 43 km/h

Temperature: 50°F (10°C)

Wind Chill: 44°F (7°C)

Dew Point: 27°F (-3°C)

Humidity: 40%

Barometer: 29.97 in (1014.9 hPa)

Clouds: Clear

Visibility: 10 miles (16 km)


2021/05/12 06:54 KBOS 120654Z 28016G23KT 10SM CLR 10/M03 A2997 RMK AO2 SLP148 T01001028

KOWD - Norwood, MA


Distance from station: SSE 18mi, 29km

Updated Wed May 12, 2021 2:53am EDT

Clear

Clear

Wind from SW

Wind:

SW 3 mph, 6 km/h

Temperature: 46°F (8°C)

Dew Point: 28°F (-2°C)

Humidity: 50%

Barometer: 29.98 in (1015.2 hPa)

Clouds: Clear

Visibility: 10 miles (16 km)


2021/05/12 06:53 KOWD 120653Z AUTO 23003KT 10SM CLR 08/M02 A2998 RMK AO2 SLP152 T00781022

KBVY - Beverly, MA


Distance from station: ENE 19mi, 31km

Updated Wed May 12, 2021 2:53am EDT

Clear

Clear

Wind from W

Wind:

W 10 mph, 17 km/h

Temperature: 46°F (8°C)

Wind Chill: 41°F (5°C)

Dew Point: 27°F (-3°C)

Humidity: 46%

Barometer: 29.94 in (1013.9 hPa)

Clouds: Clear

Visibility: 10 miles (16 km)


2021/05/12 06:53 KBVY 120653Z AUTO 27009KT 10SM CLR 08/M03 A2994 RMK AO2 SLP135 T00831028

KLWM - Lawrence, MA


Distance from station: NNE 20mi, 32km

Updated Wed May 12, 2021 2:54am EDT

Clear

Clear

Wind from SW

Wind:

SW 9 mph, 15 km/h

Temperature: 45°F (7°C)

Wind Chill: 40°F (4°C)

Dew Point: 28°F (-2°C)

Humidity: 53%

Barometer: 29.96 in (1014.6 hPa)

Clouds: Clear

Visibility: 10 miles (16 km)


2021/05/12 06:54 KLWM 120654Z AUTO 23008KT 10SM CLR 07/M02 A2996 RMK AO2 SLP146 T00721017

KFIT - Fitchburg, MA


Distance from station: WNW 27mi, 44km

Updated Wed May 12, 2021 2:52am EDT

Clear

Clear

Wind from WNW

Wind:

WNW 12 mph, 19 km/h,
Gust: 18 mph, 30 km/h

Temperature: 46°F (8°C)

Wind Chill: 40°F (4°C)

Dew Point: 30°F (-1°C)

Humidity: 53%

Barometer: 29.96 in (1014.6 hPa)

Clouds: Clear

Visibility: 10 miles (16 km)


2021/05/12 06:52 KFIT 120652Z AUTO 29010G16KT 10SM CLR 08/M01 A2996 RMK AO2 SLP145 T00781011

KASH - Nashua/Boire Fld, NH


Distance from station: NNW 28mi, 44km

Updated Wed May 12, 2021 2:56am EDT

Clear

Clear

Wind from SW

Wind:

SW 3 mph, 6 km/h

Temperature: 45°F (7°C)

Dew Point: 28°F (-2°C)

Humidity: 53%

Barometer: 29.96 in (1014.6 hPa)

Clouds: Clear

Visibility: 10 miles (16 km)


2021/05/12 06:56 KASH 120656Z AUTO 23003KT 10SM CLR 07/M02 A2996 RMK AO2 SLP149 T00721017

KORH - Worcester, MA


Distance from station: WSW 34mi, 55km

Updated Wed May 12, 2021 2:54am EDT

Clear

Clear

Wind from W

Wind:

W 16 mph, 26 km/h

Temperature: 43°F (6°C)

Wind Chill: 35°F (2°C)

Dew Point: 28°F (-2°C)

Humidity: 57%

Barometer: 29.96 in (1014.6 hPa)

Clouds: Clear

Visibility: 10 miles (16 km)


2021/05/12 06:54 KORH 120654Z AUTO 27014KT 10SM CLR 06/M02 A2996 RMK AO2 SLP148 T00561022

KMHT - Manchester, NH


Distance from station: NNW 35mi, 57km

Updated Wed May 12, 2021 2:53am EDT

Few Clouds

Few Clouds

Wind from varies

Wind:

varies 5 mph, 7 km/h

Temperature: 46°F (8°C)

Wind Chill: 44°F (7°C)

Dew Point: 27°F (-3°C)

Humidity: 46%

Barometer: 29.93 in (1013.5 hPa)

Clouds: Few Clouds

Visibility: 10 miles (16 km)

Cloud details: Few Clouds 10000 ft


2021/05/12 06:53 KMHT 120653Z VRB04KT 10SM FEW100 08/M03 A2993 RMK AO2 SLP147 T00831028

KGHG - Marshfield, MA


Distance from station: SE 38mi, 60km

Updated Wed May 12, 2021 3:15am EDT

Clear

Clear

Wind from varies

Wind:

varies 5 mph, 7 km/h,
Gust: 13 mph, 20 km/h

Temperature: 46°F (8°C)

Wind Chill: 44°F (7°C)

Dew Point: 28°F (-2°C)

Humidity: 50%

Barometer: 29.96 in (1014.6 hPa)

Clouds: Clear

Visibility: 10 miles (16 km)


2021/05/12 07:15 KGHG 120715Z AUTO VRB04G11KT 10SM CLR 08/M02 A2996 RMK AO2 TSNO

KSFZ - Pawtucket, RI


Distance from station: SSW 39mi, 62km

Updated Wed May 12, 2021 2:56am EDT

Clear

Clear

Wind from WNW

Wind:

WNW 10 mph, 17 km/h

Temperature: 45°F (7°C)

Wind Chill: 40°F (4°C)

Dew Point: 28°F (-2°C)

Humidity: 53%

Barometer: 30.00 in (1015.9 hPa)

Clouds: Clear

Visibility: 10 miles (16 km)


2021/05/12 06:56 KSFZ 120656Z AUTO 30009KT 10SM CLR 07/M02 A3000 RMK AO2 SLP164 T00721017 $

KTAN - Taunton, MA


Distance from station: SSE 40mi, 65km

Updated Wed May 12, 2021 2:52am EDT

Clear

Clear

Wind from WSW

Wind:

WSW 6 mph, 9 km/h

Temperature: 46°F (8°C)

Wind Chill: 43°F (6°C)

Dew Point: 28°F (-2°C)

Humidity: 50%

Barometer: 29.99 in (1015.6 hPa)

Clouds: Clear

Visibility: 10 miles (16 km)


2021/05/12 06:52 KTAN 120652Z AUTO 25005KT 10SM CLR 08/M02 A2999 RMK AO2 SLP156 T00831022

KPYM - Plymouth, MA


Distance from station: SE 44mi, 72km

Updated Wed May 12, 2021 2:52am EDT

Clear

Clear

Wind from WSW

Wind:

WSW 8 mph, 13 km/h

Temperature: 45°F (7°C)

Wind Chill: 41°F (5°C)

Dew Point: 27°F (-3°C)

Humidity: 49%

Barometer: 29.97 in (1014.9 hPa)

Clouds: Clear

Visibility: 10 miles (16 km)


2021/05/12 06:52 KPYM 120652Z AUTO 25007KT 10SM CLR 07/M03 A2997 RMK AO2 SLP151 T00721028

KAFN - Jaffrey, NH


Distance from station: WNW 46mi, 74km

Updated Wed May 12, 2021 2:52am EDT

Clear

Clear

Wind from varies

Wind:

varies 3 mph, 6 km/h

Temperature: 43°F (6°C)

Dew Point: 28°F (-2°C)

Humidity: 57%

Barometer: 29.96 in (1014.6 hPa)

Clouds: Clear

Visibility: 10 miles (16 km)


2021/05/12 06:52 KAFN 120652Z AUTO VRB03KT 10SM CLR 06/M02 A2996 RMK AO2 SLP153 T00561017 $

KPSM - Portsmouth/Pease, NH


Distance from station: NNE 48mi, 78km

Updated Wed May 12, 2021 2:56am EDT

Clear

Clear

Wind from WSW

Wind:

WSW 7 mph, 11 km/h

Temperature: 46°F (8°C)

Wind Chill: 42°F (6°C)

Dew Point: 25°F (-4°C)

Humidity: 43%

Barometer: 29.93 in (1013.5 hPa)

Clouds: Clear

Visibility: 10 miles (16 km)


2021/05/12 06:56 KPSM 120656Z 25006KT 10SM CLR 08/M04 A2993 RMK AO2A SLP137 T00791045

KPVD - Providence/Green, RI


Distance from station: S 51mi, 82km

Updated Wed May 12, 2021 2:51am EDT

Clear

Clear

Wind from W

Wind:

W 6 mph, 9 km/h

Temperature: 46°F (8°C)

Wind Chill: 43°F (6°C)

Dew Point: 28°F (-2°C)

Humidity: 50%

Barometer: 30.01 in (1016.3 hPa)

Clouds: Clear

Visibility: 10 miles (16 km)


2021/05/12 06:51 KPVD 120651Z 27005KT 10SM CLR 08/M02 A3001 RMK AO2 SLP164 T00781022

KCON - Concord, NH


Distance from station: NNW 54mi, 87km

Updated Wed May 12, 2021 2:51am EDT

Clear

Clear

Wind from WSW

Wind:

WSW 6 mph, 9 km/h

Temperature: 43°F (6°C)

Wind Chill: 39°F (4°C)

Dew Point: 28°F (-2°C)

Humidity: 57%

Barometer: 29.94 in (1013.9 hPa)

Clouds: Clear

Visibility: 10 miles (16 km)


2021/05/12 06:51 KCON 120651Z AUTO 25005KT 10SM CLR 06/M02 A2994 RMK AO2 SLP139 T00611022

KEWB - New Bedford, MA


Distance from station: SSE 54mi, 87km

Updated Wed May 12, 2021 2:53am EDT

Clear

Clear

Wind from W

Wind:

W 10 mph, 17 km/h

Temperature: 48°F (9°C)

Wind Chill: 44°F (7°C)

Dew Point: 28°F (-2°C)

Humidity: 46%

Barometer: 29.99 in (1015.6 hPa)

Clouds: Clear

Visibility: 10 miles (16 km)


2021/05/12 06:53 KEWB 120653Z AUTO 28009KT 10SM CLR 09/M02 A2999 RMK AO2 SLP156 T00891022

KORE - Orange, Massachusetts, USA


Distance from station: W 54mi, 87km

Updated Wed May 12, 2021 2:52am EDT

Clear

Clear

Wind from W

Wind:

W 7 mph, 11 km/h,
Gust: 17 mph, 28 km/h

Temperature: 45°F (7°C)

Wind Chill: 41°F (5°C)

Dew Point: 30°F (-1°C)

Humidity: 57%

Barometer: 29.99 in (1015.6 hPa)

Clouds: Clear

Visibility: 10 miles (16 km)


2021/05/12 06:52 KORE 120652Z AUTO 28006G15KT 10SM CLR 07/M01 A2999 RMK AO2 SLP158 T00721011

KCEF - Chicopee/Westover, Massachusetts, USA


Distance from station: WSW 67mi, 108km

Updated Wed May 12, 2021 2:56am EDT

Few Clouds

Few Clouds

Wind from WNW

Wind:

WNW 10 mph, 17 km/h

Temperature: 45°F (7°C)

Wind Chill: 40°F (4°C)

Dew Point: 30°F (-1°C)

Humidity: 57%

Barometer: 30.01 in (1016.3 hPa)

Clouds: Few Clouds

Visibility: 10 miles (16 km)

Cloud details: Few Clouds 4100 ft


2021/05/12 06:56 KCEF 120656Z AUTO 29009KT 10SM FEW041 07/M01 A3001 RMK AO2 SLPNO T00731011

KMWN - Mount Washington, NH


Distance from station: N 126mi, 203km

Updated Wed May 12, 2021 2:58am EDT

Snow showers, Freezing fog, Blowing snow, Overcast

Snow showers, Freezing fog, Blowing snow, Overcast

Wind from WNW

Wind:

WNW 44 mph, 70 km/h

Temperature: 21°F (-6°C)

Wind Chill: -0°F (-18°C)

Dew Point: 21°F (-6°C)

Humidity: 100%

Summary: Snow showers, Freezing fog, Blowing snow

Clouds: Overcast

Visibility: 0 miles (0 km)

Cloud details: Overcast 0 ft


2021/05/12 06:58 KMWN 120658Z 29038KT 0SM SHSN FZFG BLSN VV000 M06/M06 RMK VRY LGT GICG AND ICG